sensor_id;sensor_type;location;lat;lon;timestamp;temperature;humidity
45008;DHT22;30743;52.008;5.644;2024-02-14T00:01:31;10.40;99.90
45008;DHT22;30743;52.008;5.644;2024-02-14T00:03:56;10.50;99.90
45008;DHT22;30743;52.008;5.644;2024-02-14T00:06:22;10.50;99.90
45008;DHT22;30743;52.008;5.644;2024-02-14T00:08:49;10.60;99.90
45008;DHT22;30743;52.008;5.644;2024-02-14T00:11:14;10.60;99.90
45008;DHT22;30743;52.008;5.644;2024-02-14T00:13:40;10.50;99.90
45008;DHT22;30743;52.008;5.644;2024-02-14T00:16:06;10.60;99.90
45008;DHT22;30743;52.008;5.644;2024-02-14T00:18:32;10.50;99.90
45008;DHT22;30743;52.008;5.644;2024-02-14T00:20:58;10.40;99.90
45008;DHT22;30743;52.008;5.644;2024-02-14T00:23:23;10.60;99.90
45008;DHT22;30743;52.008;5.644;2024-02-14T00:25:49;10.60;99.90
45008;DHT22;30743;52.008;5.644;2024-02-14T00:28:15;10.70;99.90
45008;DHT22;30743;52.008;5.644;2024-02-14T00:30:40;10.70;99.90
45008;DHT22;30743;52.008;5.644;2024-02-14T00:33:06;10.70;99.90
45008;DHT22;30743;52.008;5.644;2024-02-14T00:35:32;10.80;99.90
45008;DHT22;30743;52.008;5.644;2024-02-14T00:37:57;10.80;99.90
45008;DHT22;30743;52.008;5.644;2024-02-14T00:40:23;10.80;99.90
45008;DHT22;30743;52.008;5.644;2024-02-14T00:42:49;10.70;99.90
45008;DHT22;30743;52.008;5.644;2024-02-14T00:45:14;10.70;99.90
45008;DHT22;30743;52.008;5.644;2024-02-14T00:47:40;10.70;99.90
45008;DHT22;30743;52.008;5.644;2024-02-14T00:50:06;10.70;99.90
45008;DHT22;30743;52.008;5.644;2024-02-14T00:52:32;10.70;99.90
45008;DHT22;30743;52.008;5.644;2024-02-14T00:54:57;10.80;99.90
45008;DHT22;30743;52.008;5.644;2024-02-14T00:57:23;10.80;99.90
45008;DHT22;30743;52.008;5.644;2024-02-14T00:59:52;11.00;99.90
45008;DHT22;30743;52.008;5.644;2024-02-14T01:02:18;10.90;99.90
45008;DHT22;30743;52.008;5.644;2024-02-14T01:04:44;11.00;99.90
45008;DHT22;30743;52.008;5.644;2024-02-14T01:07:09;11.00;99.90
45008;DHT22;30743;52.008;5.644;2024-02-14T01:09:35;10.90;99.90
45008;DHT22;30743;52.008;5.644;2024-02-14T01:12:01;11.00;99.90
45008;DHT22;30743;52.008;5.644;2024-02-14T01:14:27;10.90;99.90
45008;DHT22;30743;52.008;5.644;2024-02-14T01:16:53;11.00;99.90
45008;DHT22;30743;52.008;5.644;2024-02-14T01:19:19;11.10;99.90
45008;DHT22;30743;52.008;5.644;2024-02-14T01:21:45;11.90;99.90
45008;DHT22;30743;52.008;5.644;2024-02-14T01:24:14;11.00;99.90
45008;DHT22;30743;52.008;5.644;2024-02-14T01:26:40;12.00;99.90
45008;DHT22;30743;52.008;5.644;2024-02-14T01:29:06;11.10;99.90
45008;DHT22;30743;52.008;5.644;2024-02-14T01:31:32;11.20;99.90
45008;DHT22;30743;52.008;5.644;2024-02-14T01:33:59;11.30;99.90
45008;DHT22;30743;52.008;5.644;2024-02-14T01:36:28;11.10;99.90
45008;DHT22;30743;52.008;5.644;2024-02-14T01:38:53;11.90;99.90
45008;DHT22;30743;52.008;5.644;2024-02-14T01:41:19;11.20;99.90
45008;DHT22;30743;52.008;5.644;2024-02-14T01:43:46;11.10;99.90
45008;DHT22;30743;52.008;5.644;2024-02-14T01:46:12;11.10;99.90
45008;DHT22;30743;52.008;5.644;2024-02-14T01:48:39;11.30;99.90
45008;DHT22;30743;52.008;5.644;2024-02-14T01:51:05;11.20;99.90
45008;DHT22;30743;52.008;5.644;2024-02-14T01:53:34;11.30;99.90
45008;DHT22;30743;52.008;5.644;2024-02-14T01:56:00;11.30;99.90
45008;DHT22;30743;52.008;5.644;2024-02-14T01:58:26;11.30;99.90
45008;DHT22;30743;52.008;5.644;2024-02-14T02:00:53;11.10;99.90
45008;DHT22;30743;52.008;5.644;2024-02-14T02:03:25;11.30;99.90
45008;DHT22;30743;52.008;5.644;2024-02-14T02:05:55;11.30;99.90
45008;DHT22;30743;52.008;5.644;2024-02-14T02:08:21;12.00;99.90
45008;DHT22;30743;52.008;5.644;2024-02-14T02:10:47;11.40;99.90
45008;DHT22;30743;52.008;5.644;2024-02-14T02:13:13;11.50;99.90
45008;DHT22;30743;52.008;5.644;2024-02-14T02:15:41;11.60;99.90
45008;DHT22;30743;52.008;5.644;2024-02-14T02:18:10;11.60;99.90
45008;DHT22;30743;52.008;5.644;2024-02-14T02:20:36;11.50;99.90
45008;DHT22;30743;52.008;5.644;2024-02-14T02:23:02;12.40;99.90
45008;DHT22;30743;52.008;5.644;2024-02-14T02:25:28;11.50;99.90
45008;DHT22;30743;52.008;5.644;2024-02-14T02:27:53;11.40;99.90
45008;DHT22;30743;52.008;5.644;2024-02-14T02:30:23;11.30;99.90
45008;DHT22;30743;52.008;5.644;2024-02-14T02:32:49;11.40;99.90
45008;DHT22;30743;52.008;5.644;2024-02-14T02:35:18;11.40;99.90
45008;DHT22;30743;52.008;5.644;2024-02-14T02:37:47;11.30;99.90
45008;DHT22;30743;52.008;5.644;2024-02-14T02:40:15;11.40;99.90
45008;DHT22;30743;52.008;5.644;2024-02-14T02:42:42;11.50;99.90
45008;DHT22;30743;52.008;5.644;2024-02-14T02:45:08;11.40;99.90
45008;DHT22;30743;52.008;5.644;2024-02-14T02:47:34;11.30;99.90
45008;DHT22;30743;52.008;5.644;2024-02-14T02:50:00;11.80;99.90
45008;DHT22;30743;52.008;5.644;2024-02-14T02:52:27;11.30;99.90
45008;DHT22;30743;52.008;5.644;2024-02-14T02:54:53;11.40;99.90
45008;DHT22;30743;52.008;5.644;2024-02-14T02:57:19;11.50;99.90
45008;DHT22;30743;52.008;5.644;2024-02-14T02:59:45;11.30;99.90
45008;DHT22;30743;52.008;5.644;2024-02-14T03:02:13;11.40;99.90
45008;DHT22;30743;52.008;5.644;2024-02-14T03:04:39;11.30;99.90
45008;DHT22;30743;52.008;5.644;2024-02-14T03:07:05;11.40;99.90
45008;DHT22;30743;52.008;5.644;2024-02-14T03:09:34;11.30;99.90
45008;DHT22;30743;52.008;5.644;2024-02-14T03:12:00;11.30;99.90
45008;DHT22;30743;52.008;5.644;2024-02-14T03:14:29;11.20;99.90
45008;DHT22;30743;52.008;5.644;2024-02-14T03:17:00;11.40;99.90
45008;DHT22;30743;52.008;5.644;2024-02-14T03:19:27;11.50;99.90
45008;DHT22;30743;52.008;5.644;2024-02-14T03:21:55;12.00;99.90
45008;DHT22;30743;52.008;5.644;2024-02-14T03:24:22;11.40;99.90
45008;DHT22;30743;52.008;5.644;2024-02-14T03:26:47;11.50;99.90
45008;DHT22;30743;52.008;5.644;2024-02-14T03:29:13;11.50;99.90
45008;DHT22;30743;52.008;5.644;2024-02-14T03:31:39;11.60;99.90
45008;DHT22;30743;52.008;5.644;2024-02-14T03:34:04;11.50;99.90
45008;DHT22;30743;52.008;5.644;2024-02-14T03:36:30;11.50;99.90
45008;DHT22;30743;52.008;5.644;2024-02-14T03:38:58;11.60;99.90
45008;DHT22;30743;52.008;5.644;2024-02-14T03:41:24;11.70;99.90
45008;DHT22;30743;52.008;5.644;2024-02-14T03:43:50;12.60;99.90
45008;DHT22;30743;52.008;5.644;2024-02-14T03:46:16;11.50;99.90
45008;DHT22;30743;52.008;5.644;2024-02-14T03:48:43;11.60;99.90
45008;DHT22;30743;52.008;5.644;2024-02-14T03:51:09;11.50;99.90
45008;DHT22;30743;52.008;5.644;2024-02-14T03:53:34;11.50;99.90
45008;DHT22;30743;52.008;5.644;2024-02-14T03:56:00;11.50;99.90
45008;DHT22;30743;52.008;5.644;2024-02-14T03:58:26;11.70;99.90
45008;DHT22;30743;52.008;5.644;2024-02-14T04:00:52;11.80;99.90
45008;DHT22;30743;52.008;5.644;2024-02-14T04:03:18;11.80;99.90
45008;DHT22;30743;52.008;5.644;2024-02-14T04:05:44;11.70;99.90
45008;DHT22;30743;52.008;5.644;2024-02-14T04:08:10;11.80;99.90
45008;DHT22;30743;52.008;5.644;2024-02-14T04:10:37;11.90;99.90
45008;DHT22;30743;52.008;5.644;2024-02-14T04:13:06;11.80;99.90
45008;DHT22;30743;52.008;5.644;2024-02-14T04:15:32;11.90;99.90
45008;DHT22;30743;52.008;5.644;2024-02-14T04:17:57;11.90;99.90
45008;DHT22;30743;52.008;5.644;2024-02-14T04:20:25;11.90;99.90
45008;DHT22;30743;52.008;5.644;2024-02-14T04:22:50;11.90;99.90
45008;DHT22;30743;52.008;5.644;2024-02-14T04:25:16;11.90;99.90
45008;DHT22;30743;52.008;5.644;2024-02-14T04:27:42;12.10;99.90
45008;DHT22;30743;52.008;5.644;2024-02-14T04:30:08;12.10;99.90
45008;DHT22;30743;52.008;5.644;2024-02-14T04:32:33;12.10;99.90
45008;DHT22;30743;52.008;5.644;2024-02-14T04:34:59;12.10;99.90
45008;DHT22;30743;52.008;5.644;2024-02-14T04:37:24;12.00;99.90
45008;DHT22;30743;52.008;5.644;2024-02-14T04:39:50;12.20;99.90
45008;DHT22;30743;52.008;5.644;2024-02-14T04:42:16;12.10;99.90
45008;DHT22;30743;52.008;5.644;2024-02-14T04:44:41;12.00;99.90
45008;DHT22;30743;52.008;5.644;2024-02-14T04:47:07;12.00;99.90
45008;DHT22;30743;52.008;5.644;2024-02-14T04:49:35;12.00;99.90
45008;DHT22;30743;52.008;5.644;2024-02-14T04:52:00;11.90;99.90
45008;DHT22;30743;52.008;5.644;2024-02-14T04:54:26;12.40;99.90
45008;DHT22;30743;52.008;5.644;2024-02-14T04:56:52;12.10;99.90
45008;DHT22;30743;52.008;5.644;2024-02-14T04:59:17;12.30;99.90
45008;DHT22;30743;52.008;5.644;2024-02-14T05:01:43;12.30;99.90
45008;DHT22;30743;52.008;5.644;2024-02-14T05:04:09;12.30;99.90
45008;DHT22;30743;52.008;5.644;2024-02-14T05:06:34;12.30;99.90
45008;DHT22;30743;52.008;5.644;2024-02-14T05:09:00;12.30;99.90
45008;DHT22;30743;52.008;5.644;2024-02-14T05:11:25;12.30;99.90
45008;DHT22;30743;52.008;5.644;2024-02-14T05:13:51;12.40;99.90
45008;DHT22;30743;52.008;5.644;2024-02-14T05:16:20;12.30;99.90
45008;DHT22;30743;52.008;5.644;2024-02-14T05:18:46;12.30;99.90
45008;DHT22;30743;52.008;5.644;2024-02-14T05:21:12;12.70;99.90
45008;DHT22;30743;52.008;5.644;2024-02-14T05:23:37;12.30;99.90
45008;DHT22;30743;52.008;5.644;2024-02-14T05:26:04;12.30;99.90
45008;DHT22;30743;52.008;5.644;2024-02-14T05:28:30;12.30;99.90
45008;DHT22;30743;52.008;5.644;2024-02-14T05:30:56;12.40;99.90
45008;DHT22;30743;52.008;5.644;2024-02-14T05:33:22;12.40;99.90
45008;DHT22;30743;52.008;5.644;2024-02-14T05:35:49;12.40;99.90
45008;DHT22;30743;52.008;5.644;2024-02-14T05:38:15;12.40;99.90
45008;DHT22;30743;52.008;5.644;2024-02-14T05:40:41;12.40;99.90
45008;DHT22;30743;52.008;5.644;2024-02-14T05:43:12;12.60;99.90
45008;DHT22;30743;52.008;5.644;2024-02-14T05:45:38;12.60;99.90
45008;DHT22;30743;52.008;5.644;2024-02-14T05:48:04;12.60;99.90
45008;DHT22;30743;52.008;5.644;2024-02-14T05:50:30;12.60;99.90
45008;DHT22;30743;52.008;5.644;2024-02-14T05:52:55;12.70;99.90
45008;DHT22;30743;52.008;5.644;2024-02-14T05:55:23;15.00;99.90
45008;DHT22;30743;52.008;5.644;2024-02-14T05:57:50;12.70;99.90
45008;DHT22;30743;52.008;5.644;2024-02-14T06:00:18;12.70;99.90
45008;DHT22;30743;52.008;5.644;2024-02-14T06:02:44;12.70;99.90
45008;DHT22;30743;52.008;5.644;2024-02-14T06:05:10;12.80;99.90
45008;DHT22;30743;52.008;5.644;2024-02-14T06:07:39;12.90;99.90
45008;DHT22;30743;52.008;5.644;2024-02-14T06:10:06;14.40;99.90
45008;DHT22;30743;52.008;5.644;2024-02-14T06:12:32;12.80;99.90
45008;DHT22;30743;52.008;5.644;2024-02-14T06:14:58;12.80;99.90
45008;DHT22;30743;52.008;5.644;2024-02-14T06:17:24;12.80;99.90
45008;DHT22;30743;52.008;5.644;2024-02-14T06:19:51;12.90;99.90
45008;DHT22;30743;52.008;5.644;2024-02-14T06:22:17;12.80;99.90
45008;DHT22;30743;52.008;5.644;2024-02-14T06:24:43;12.80;99.90
45008;DHT22;30743;52.008;5.644;2024-02-14T06:27:08;12.60;99.90
45008;DHT22;30743;52.008;5.644;2024-02-14T06:29:34;12.80;99.90
45008;DHT22;30743;52.008;5.644;2024-02-14T06:32:00;12.80;99.90
45008;DHT22;30743;52.008;5.644;2024-02-14T06:34:26;12.70;99.90
45008;DHT22;30743;52.008;5.644;2024-02-14T06:36:53;12.80;99.90
45008;DHT22;30743;52.008;5.644;2024-02-14T06:39:19;12.90;99.90
45008;DHT22;30743;52.008;5.644;2024-02-14T06:41:46;12.90;99.90
45008;DHT22;30743;52.008;5.644;2024-02-14T06:44:12;12.90;99.90
45008;DHT22;30743;52.008;5.644;2024-02-14T06:46:38;12.90;99.90
45008;DHT22;30743;52.008;5.644;2024-02-14T06:49:04;13.10;99.90
45008;DHT22;30743;52.008;5.644;2024-02-14T06:51:30;13.00;99.90
45008;DHT22;30743;52.008;5.644;2024-02-14T06:53:56;14.10;99.90
45008;DHT22;30743;52.008;5.644;2024-02-14T06:56:22;12.80;99.90
45008;DHT22;30743;52.008;5.644;2024-02-14T06:58:48;12.80;99.90
45008;DHT22;30743;52.008;5.644;2024-02-14T07:01:19;12.90;99.90
45008;DHT22;30743;52.008;5.644;2024-02-14T07:03:47;13.10;99.90
45008;DHT22;30743;52.008;5.644;2024-02-14T07:06:13;13.00;99.90
45008;DHT22;30743;52.008;5.644;2024-02-14T07:08:42;12.90;99.90
45008;DHT22;30743;52.008;5.644;2024-02-14T07:11:07;13.00;99.90
45008;DHT22;30743;52.008;5.644;2024-02-14T07:13:33;13.10;99.90
45008;DHT22;30743;52.008;5.644;2024-02-14T07:15:58;13.20;99.90
45008;DHT22;30743;52.008;5.644;2024-02-14T07:18:24;13.20;99.90
45008;DHT22;30743;52.008;5.644;2024-02-14T07:20:49;13.20;99.90
45008;DHT22;30743;52.008;5.644;2024-02-14T07:23:16;13.20;99.90
45008;DHT22;30743;52.008;5.644;2024-02-14T07:25:42;13.10;99.90
45008;DHT22;30743;52.008;5.644;2024-02-14T07:28:08;13.00;99.90
45008;DHT22;30743;52.008;5.644;2024-02-14T07:32:59;12.90;99.90
45008;DHT22;30743;52.008;5.644;2024-02-14T07:35:25;12.90;99.90
45008;DHT22;30743;52.008;5.644;2024-02-14T07:37:51;13.10;99.90
45008;DHT22;30743;52.008;5.644;2024-02-14T07:40:17;12.90;99.90
45008;DHT22;30743;52.008;5.644;2024-02-14T07:42:42;12.90;99.90
45008;DHT22;30743;52.008;5.644;2024-02-14T07:45:08;12.90;99.90
45008;DHT22;30743;52.008;5.644;2024-02-14T07:47:34;12.90;99.90
45008;DHT22;30743;52.008;5.644;2024-02-14T07:50:00;12.90;99.90
45008;DHT22;30743;52.008;5.644;2024-02-14T07:52:25;12.90;99.90
45008;DHT22;30743;52.008;5.644;2024-02-14T07:54:54;13.00;99.90
45008;DHT22;30743;52.008;5.644;2024-02-14T07:57:23;12.90;99.90
45008;DHT22;30743;52.008;5.644;2024-02-14T07:59:50;13.00;99.90
45008;DHT22;30743;52.008;5.644;2024-02-14T08:02:15;13.10;99.90
45008;DHT22;30743;52.008;5.644;2024-02-14T08:04:41;13.20;99.90
45008;DHT22;30743;52.008;5.644;2024-02-14T08:07:06;13.20;99.90
45008;DHT22;30743;52.008;5.644;2024-02-14T08:09:32;13.10;99.90
45008;DHT22;30743;52.008;5.644;2024-02-14T08:11:58;14.40;99.90
45008;DHT22;30743;52.008;5.644;2024-02-14T08:14:24;13.00;99.90
45008;DHT22;30743;52.008;5.644;2024-02-14T08:16:49;13.00;99.90
45008;DHT22;30743;52.008;5.644;2024-02-14T08:19:17;13.00;99.90
45008;DHT22;30743;52.008;5.644;2024-02-14T08:21:44;13.10;99.90
45008;DHT22;30743;52.008;5.644;2024-02-14T08:24:10;12.90;99.90
45008;DHT22;30743;52.008;5.644;2024-02-14T08:26:35;13.00;99.90
45008;DHT22;30743;52.008;5.644;2024-02-14T08:29:01;13.00;99.90
45008;DHT22;30743;52.008;5.644;2024-02-14T08:31:27;13.00;99.90
45008;DHT22;30743;52.008;5.644;2024-02-14T08:33:52;12.90;99.90
45008;DHT22;30743;52.008;5.644;2024-02-14T08:36:19;12.90;99.90
45008;DHT22;30743;52.008;5.644;2024-02-14T08:38:44;13.10;99.90
45008;DHT22;30743;52.008;5.644;2024-02-14T08:41:10;13.10;99.90
45008;DHT22;30743;52.008;5.644;2024-02-14T08:43:36;13.40;99.90
45008;DHT22;30743;52.008;5.644;2024-02-14T08:46:01;13.10;99.90
45008;DHT22;30743;52.008;5.644;2024-02-14T08:48:28;13.20;99.90
45008;DHT22;30743;52.008;5.644;2024-02-14T08:50:55;13.30;99.90
45008;DHT22;30743;52.008;5.644;2024-02-14T08:53:21;13.40;99.90
45008;DHT22;30743;52.008;5.644;2024-02-14T08:55:47;14.20;99.90
45008;DHT22;30743;52.008;5.644;2024-02-14T08:58:13;13.30;99.90
45008;DHT22;30743;52.008;5.644;2024-02-14T09:00:39;13.20;99.90
45008;DHT22;30743;52.008;5.644;2024-02-14T09:03:05;13.10;99.90
45008;DHT22;30743;52.008;5.644;2024-02-14T09:05:31;13.00;99.90
45008;DHT22;30743;52.008;5.644;2024-02-14T09:07:56;13.10;99.90
45008;DHT22;30743;52.008;5.644;2024-02-14T09:10:22;13.20;99.90
45008;DHT22;30743;52.008;5.644;2024-02-14T09:12:48;13.10;99.90
45008;DHT22;30743;52.008;5.644;2024-02-14T09:15:14;14.20;99.90
45008;DHT22;30743;52.008;5.644;2024-02-14T09:17:40;13.10;99.90
45008;DHT22;30743;52.008;5.644;2024-02-14T09:20:10;13.20;99.90
45008;DHT22;30743;52.008;5.644;2024-02-14T09:22:36;13.30;99.90
45008;DHT22;30743;52.008;5.644;2024-02-14T09:25:02;13.30;99.90
45008;DHT22;30743;52.008;5.644;2024-02-14T09:27:30;13.40;99.90
45008;DHT22;30743;52.008;5.644;2024-02-14T09:29:56;13.40;99.90
45008;DHT22;30743;52.008;5.644;2024-02-14T09:32:21;13.50;99.90
45008;DHT22;30743;52.008;5.644;2024-02-14T09:34:47;13.40;99.90
45008;DHT22;30743;52.008;5.644;2024-02-14T09:37:12;13.40;99.90
45008;DHT22;30743;52.008;5.644;2024-02-14T09:39:39;13.30;99.90
45008;DHT22;30743;52.008;5.644;2024-02-14T09:42:11;13.20;99.90
45008;DHT22;30743;52.008;5.644;2024-02-14T09:44:40;13.30;99.90
45008;DHT22;30743;52.008;5.644;2024-02-14T09:47:06;14.30;99.90
45008;DHT22;30743;52.008;5.644;2024-02-14T09:49:35;13.40;99.90
45008;DHT22;30743;52.008;5.644;2024-02-14T09:52:05;13.40;99.90
45008;DHT22;30743;52.008;5.644;2024-02-14T09:54:32;13.60;99.90
45008;DHT22;30743;52.008;5.644;2024-02-14T09:57:00;13.60;99.90
45008;DHT22;30743;52.008;5.644;2024-02-14T09:59:28;13.50;99.90
45008;DHT22;30743;52.008;5.644;2024-02-14T10:01:54;13.50;99.90
45008;DHT22;30743;52.008;5.644;2024-02-14T10:04:20;13.60;99.90
45008;DHT22;30743;52.008;5.644;2024-02-14T10:06:45;14.30;99.90
45008;DHT22;30743;52.008;5.644;2024-02-14T10:09:11;13.40;99.90
45008;DHT22;30743;52.008;5.644;2024-02-14T10:11:37;13.50;99.90
45008;DHT22;30743;52.008;5.644;2024-02-14T10:14:06;13.60;99.90
45008;DHT22;30743;52.008;5.644;2024-02-14T10:16:35;15.20;99.90
45008;DHT22;30743;52.008;5.644;2024-02-14T10:19:01;13.80;99.90
45008;DHT22;30743;52.008;5.644;2024-02-14T10:21:27;13.80;99.90
45008;DHT22;30743;52.008;5.644;2024-02-14T10:23:53;13.70;99.90
45008;DHT22;30743;52.008;5.644;2024-02-14T10:26:22;13.90;99.90
45008;DHT22;30743;52.008;5.644;2024-02-14T10:28:48;13.90;99.90
45008;DHT22;30743;52.008;5.644;2024-02-14T10:31:14;13.90;99.90
45008;DHT22;30743;52.008;5.644;2024-02-14T10:33:41;13.90;99.90
45008;DHT22;30743;52.008;5.644;2024-02-14T10:36:08;13.90;99.90
45008;DHT22;30743;52.008;5.644;2024-02-14T10:38:34;14.00;99.90
45008;DHT22;30743;52.008;5.644;2024-02-14T10:41:01;14.00;99.90
45008;DHT22;30743;52.008;5.644;2024-02-14T10:43:27;13.90;99.90
45008;DHT22;30743;52.008;5.644;2024-02-14T10:45:54;14.10;99.90
45008;DHT22;30743;52.008;5.644;2024-02-14T10:48:22;14.10;99.90
45008;DHT22;30743;52.008;5.644;2024-02-14T10:50:53;15.70;99.90
45008;DHT22;30743;52.008;5.644;2024-02-14T10:53:19;14.10;99.90
45008;DHT22;30743;52.008;5.644;2024-02-14T10:55:48;15.60;99.90
45008;DHT22;30743;52.008;5.644;2024-02-14T10:58:16;15.00;99.90
45008;DHT22;30743;52.008;5.644;2024-02-14T11:00:42;14.30;99.90
45008;DHT22;30743;52.008;5.644;2024-02-14T11:03:09;15.80;99.90
45008;DHT22;30743;52.008;5.644;2024-02-14T11:05:46;14.30;99.90
45008;DHT22;30743;52.008;5.644;2024-02-14T11:08:21;14.40;99.90
45008;DHT22;30743;52.008;5.644;2024-02-14T11:10:55;14.50;99.90
45008;DHT22;30743;52.008;5.644;2024-02-14T11:13:29;14.50;99.90
45008;DHT22;30743;52.008;5.644;2024-02-14T11:16:00;14.60;99.90
45008;DHT22;30743;52.008;5.644;2024-02-14T11:18:26;15.10;99.90
45008;DHT22;30743;52.008;5.644;2024-02-14T11:20:52;14.40;99.90
45008;DHT22;30743;52.008;5.644;2024-02-14T11:23:22;14.40;99.90
45008;DHT22;30743;52.008;5.644;2024-02-14T11:25:47;15.90;99.90
45008;DHT22;30743;52.008;5.644;2024-02-14T11:28:23;14.40;99.90
45008;DHT22;30743;52.008;5.644;2024-02-14T11:30:49;15.00;99.90
45008;DHT22;30743;52.008;5.644;2024-02-14T11:33:20;15.10;99.90
45008;DHT22;30743;52.008;5.644;2024-02-14T11:35:53;14.60;99.90
45008;DHT22;30743;52.008;5.644;2024-02-14T11:38:20;15.10;99.90
45008;DHT22;30743;52.008;5.644;2024-02-14T11:40:46;14.50;99.90
45008;DHT22;30743;52.008;5.644;2024-02-14T11:45:39;14.50;99.90
45008;DHT22;30743;52.008;5.644;2024-02-14T11:48:08;14.40;99.90
45008;DHT22;30743;52.008;5.644;2024-02-14T11:50:34;14.40;99.90
45008;DHT22;30743;52.008;5.644;2024-02-14T11:52:59;15.70;99.90
45008;DHT22;30743;52.008;5.644;2024-02-14T11:55:30;15.10;99.90
45008;DHT22;30743;52.008;5.644;2024-02-14T11:57:57;14.80;99.90
45008;DHT22;30743;52.008;5.644;2024-02-14T12:00:23;14.40;99.90
45008;DHT22;30743;52.008;5.644;2024-02-14T12:02:50;15.60;99.90
45008;DHT22;30743;52.008;5.644;2024-02-14T12:05:17;14.40;99.90
45008;DHT22;30743;52.008;5.644;2024-02-14T12:07:43;14.50;99.90
45008;DHT22;30743;52.008;5.644;2024-02-14T12:10:09;15.20;99.90
45008;DHT22;30743;52.008;5.644;2024-02-14T12:12:35;14.30;99.90
45008;DHT22;30743;52.008;5.644;2024-02-14T12:15:02;14.30;99.90
45008;DHT22;30743;52.008;5.644;2024-02-14T12:17:28;14.30;99.90
45008;DHT22;30743;52.008;5.644;2024-02-14T12:20:07;14.40;99.90
45008;DHT22;30743;52.008;5.644;2024-02-14T12:22:34;14.80;99.90
45008;DHT22;30743;52.008;5.644;2024-02-14T12:25:00;14.40;99.90
45008;DHT22;30743;52.008;5.644;2024-02-14T12:27:26;14.50;99.90
45008;DHT22;30743;52.008;5.644;2024-02-14T12:29:51;14.90;99.90
45008;DHT22;30743;52.008;5.644;2024-02-14T12:32:17;14.50;99.90
45008;DHT22;30743;52.008;5.644;2024-02-14T12:34:44;14.60;99.90
45008;DHT22;30743;52.008;5.644;2024-02-14T12:37:10;14.50;99.90
45008;DHT22;30743;52.008;5.644;2024-02-14T12:39:37;14.50;99.90
45008;DHT22;30743;52.008;5.644;2024-02-14T12:42:03;14.50;99.90
45008;DHT22;30743;52.008;5.644;2024-02-14T12:44:29;14.50;99.90
45008;DHT22;30743;52.008;5.644;2024-02-14T12:46:55;14.60;99.90
45008;DHT22;30743;52.008;5.644;2024-02-14T12:49:20;14.60;99.90
45008;DHT22;30743;52.008;5.644;2024-02-14T12:51:46;14.60;99.90
45008;DHT22;30743;52.008;5.644;2024-02-14T12:54:12;16.00;99.90
45008;DHT22;30743;52.008;5.644;2024-02-14T12:56:40;14.70;99.90
45008;DHT22;30743;52.008;5.644;2024-02-14T12:59:05;14.70;99.90
45008;DHT22;30743;52.008;5.644;2024-02-14T13:01:31;14.80;99.90
45008;DHT22;30743;52.008;5.644;2024-02-14T13:03:57;14.60;99.90
45008;DHT22;30743;52.008;5.644;2024-02-14T13:06:22;14.60;99.90
45008;DHT22;30743;52.008;5.644;2024-02-14T13:08:49;15.40;99.90
45008;DHT22;30743;52.008;5.644;2024-02-14T13:11:14;14.50;99.90
45008;DHT22;30743;52.008;5.644;2024-02-14T13:13:41;14.60;99.90
45008;DHT22;30743;52.008;5.644;2024-02-14T13:16:07;14.40;99.90
45008;DHT22;30743;52.008;5.644;2024-02-14T13:18:33;14.30;99.90
45008;DHT22;30743;52.008;5.644;2024-02-14T13:21:00;14.20;99.90
45008;DHT22;30743;52.008;5.644;2024-02-14T13:23:26;14.60;99.90
45008;DHT22;30743;52.008;5.644;2024-02-14T13:25:51;14.30;99.90
45008;DHT22;30743;52.008;5.644;2024-02-14T13:28:17;14.50;99.90
45008;DHT22;30743;52.008;5.644;2024-02-14T13:30:44;14.40;99.90
45008;DHT22;30743;52.008;5.644;2024-02-14T13:33:10;14.40;99.90
45008;DHT22;30743;52.008;5.644;2024-02-14T13:35:37;14.60;99.90
45008;DHT22;30743;52.008;5.644;2024-02-14T13:38:04;15.50;99.90
45008;DHT22;30743;52.008;5.644;2024-02-14T13:40:31;15.00;99.90
45008;DHT22;30743;52.008;5.644;2024-02-14T13:42:57;15.50;99.90
45008;DHT22;30743;52.008;5.644;2024-02-14T13:45:24;14.80;99.90
45008;DHT22;30743;52.008;5.644;2024-02-14T13:47:51;14.60;99.90
45008;DHT22;30743;52.008;5.644;2024-02-14T13:50:18;16.10;99.90
45008;DHT22;30743;52.008;5.644;2024-02-14T13:52:43;14.70;99.90
45008;DHT22;30743;52.008;5.644;2024-02-14T13:55:10;14.70;99.90
45008;DHT22;30743;52.008;5.644;2024-02-14T13:57:39;14.60;99.90
45008;DHT22;30743;52.008;5.644;2024-02-14T14:00:08;14.40;99.90
45008;DHT22;30743;52.008;5.644;2024-02-14T14:02:35;14.30;99.90
45008;DHT22;30743;52.008;5.644;2024-02-14T14:05:06;14.30;99.90
45008;DHT22;30743;52.008;5.644;2024-02-14T14:07:34;14.40;99.90
45008;DHT22;30743;52.008;5.644;2024-02-14T14:10:02;14.40;99.90
45008;DHT22;30743;52.008;5.644;2024-02-14T14:12:28;14.40;99.90
45008;DHT22;30743;52.008;5.644;2024-02-14T14:14:53;15.80;99.90
45008;DHT22;30743;52.008;5.644;2024-02-14T14:17:19;14.40;99.90
45008;DHT22;30743;52.008;5.644;2024-02-14T14:19:45;14.40;99.90
45008;DHT22;30743;52.008;5.644;2024-02-14T14:22:11;14.40;99.90
45008;DHT22;30743;52.008;5.644;2024-02-14T14:24:36;15.10;99.90
45008;DHT22;30743;52.008;5.644;2024-02-14T14:27:02;14.40;99.90
45008;DHT22;30743;52.008;5.644;2024-02-14T14:29:27;14.40;99.90
45008;DHT22;30743;52.008;5.644;2024-02-14T14:31:53;15.40;99.90
45008;DHT22;30743;52.008;5.644;2024-02-14T14:34:19;14.50;99.90
45008;DHT22;30743;52.008;5.644;2024-02-14T14:36:45;14.50;99.90
45008;DHT22;30743;52.008;5.644;2024-02-14T14:39:11;14.40;99.90
45008;DHT22;30743;52.008;5.644;2024-02-14T14:41:37;14.50;99.90
45008;DHT22;30743;52.008;5.644;2024-02-14T14:44:03;14.40;99.90
45008;DHT22;30743;52.008;5.644;2024-02-14T14:46:29;14.50;99.90
45008;DHT22;30743;52.008;5.644;2024-02-14T14:48:57;14.50;99.90
45008;DHT22;30743;52.008;5.644;2024-02-14T14:51:23;15.70;99.90
45008;DHT22;30743;52.008;5.644;2024-02-14T14:53:48;14.70;99.90
45008;DHT22;30743;52.008;5.644;2024-02-14T14:56:15;14.70;99.90
45008;DHT22;30743;52.008;5.644;2024-02-14T14:58:41;14.70;99.90
45008;DHT22;30743;52.008;5.644;2024-02-14T15:01:08;14.70;99.90
45008;DHT22;30743;52.008;5.644;2024-02-14T15:03:34;14.60;99.90
45008;DHT22;30743;52.008;5.644;2024-02-14T15:06:00;14.10;99.90
45008;DHT22;30743;52.008;5.644;2024-02-14T15:08:26;14.70;99.90
45008;DHT22;30743;52.008;5.644;2024-02-14T15:10:53;14.50;99.90
45008;DHT22;30743;52.008;5.644;2024-02-14T15:13:23;14.60;99.90
45008;DHT22;30743;52.008;5.644;2024-02-14T15:15:49;14.70;99.90
45008;DHT22;30743;52.008;5.644;2024-02-14T15:18:15;14.70;99.90
45008;DHT22;30743;52.008;5.644;2024-02-14T15:20:40;15.50;99.90
45008;DHT22;30743;52.008;5.644;2024-02-14T15:23:07;14.80;99.90
45008;DHT22;30743;52.008;5.644;2024-02-14T15:25:33;14.90;99.90
45008;DHT22;30743;52.008;5.644;2024-02-14T15:27:59;15.00;99.90
45008;DHT22;30743;52.008;5.644;2024-02-14T15:30:31;15.90;99.90